N464MW LFXU-LFPN
Flight info
| Callsign | N464MW |
|---|---|
| Flight time | 0h 17m |
| Altitude | 3500 |
| Route | TSU |
| Aircraft | S22T/L-SDGRY/S |
Departure
| Time | 2026-04-27 10:11 |
|---|---|
| Airport | Les Mureaux Airfield (LFXU) |
Arrival
| Time | 2026-04-27 10:28 |
|---|---|
| Airport | Toussus-le-Noble Airport (LFPN) |
| Time | Latitude | Longitude | Altitude | Speed | Heading |
|---|---|---|---|---|---|
| 2026-04-27 09:46 | 48.99780 | 1.93273 | 89 ft | 0 kts | 178° |
| 2026-04-27 09:57 | 48.99769 | 1.93274 | 92 ft | 12 kts | 175° |
| 2026-04-27 09:58 | 48.99744 | 1.93278 | 90 ft | 0 kts | 173° |
| 2026-04-27 10:06 | 48.99736 | 1.93266 | 91 ft | 4 kts | 274° |
| 2026-04-27 10:07 | 48.99765 | 1.93243 | 90 ft | 0 kts | 343° |
| 2026-04-27 10:08 | 48.99808 | 1.93225 | 91 ft | 10 kts | 345° |
| 2026-04-27 10:08 | 48.99872 | 1.93150 | 87 ft | 12 kts | 304° |
| 2026-04-27 10:08 | 48.99928 | 1.93116 | 85 ft | 7 kts | 12° |
| 2026-04-27 10:09 | 48.99963 | 1.93136 | 86 ft | 4 kts | 87° |
| 2026-04-27 10:09 | 48.99962 | 1.93151 | 86 ft | 0 kts | 101° |
| 2026-04-27 10:10 | 48.99950 | 1.93268 | 87 ft | 45 kts | 100° |
| 2026-04-27 10:11 | 48.99862 | 1.94076 | 205 ft | 91 kts | 94° |
| 2026-04-27 10:11 | 48.99766 | 1.95022 | 606 ft | 93 kts | 94° |
| 2026-04-27 10:11 | 48.99558 | 1.96002 | 965 ft | 104 kts | 104° |
| 2026-04-27 10:11 | 48.99198 | 1.97015 | 1408 ft | 109 kts | 119° |
| 2026-04-27 10:12 | 48.98633 | 1.97913 | 1703 ft | 130 kts | 144° |
| 2026-04-27 10:12 | 48.97759 | 1.98517 | 2039 ft | 144 kts | 152° |
| 2026-04-27 10:12 | 48.96758 | 1.98932 | 2351 ft | 153 kts | 165° |
| 2026-04-27 10:12 | 48.95696 | 1.99237 | 2541 ft | 158 kts | 164° |
| 2026-04-27 10:13 | 48.94655 | 1.99745 | 2616 ft | 159 kts | 158° |
| 2026-04-27 10:13 | 48.93558 | 1.99996 | 2517 ft | 158 kts | 170° |
| 2026-04-27 10:13 | 48.92475 | 2.00127 | 2402 ft | 157 kts | 173° |
| 2026-04-27 10:13 | 48.91372 | 2.00203 | 2258 ft | 157 kts | 172° |
| 2026-04-27 10:14 | 48.90316 | 2.00435 | 2210 ft | 152 kts | 164° |
| 2026-04-27 10:14 | 48.89293 | 2.00807 | 2184 ft | 155 kts | 159° |
| 2026-04-27 10:14 | 48.88294 | 2.01468 | 2357 ft | 157 kts | 146° |
| 2026-04-27 10:14 | 48.87394 | 2.02410 | 2490 ft | 161 kts | 137° |
| 2026-04-27 10:15 | 48.86582 | 2.03578 | 2643 ft | 160 kts | 130° |
| 2026-04-27 10:15 | 48.85826 | 2.04847 | 2668 ft | 165 kts | 125° |
| 2026-04-27 10:15 | 48.85251 | 2.06305 | 2600 ft | 153 kts | 114° |
| 2026-04-27 10:15 | 48.84774 | 2.07709 | 2324 ft | 153 kts | 112° |
| 2026-04-27 10:16 | 48.84310 | 2.09143 | 2265 ft | 148 kts | 110° |
| 2026-04-27 10:16 | 48.83734 | 2.10446 | 2134 ft | 159 kts | 139° |
| 2026-04-27 10:16 | 48.82685 | 2.11005 | 2144 ft | 159 kts | 160° |
| 2026-04-27 10:16 | 48.81636 | 2.11472 | 2120 ft | 156 kts | 156° |
| 2026-04-27 10:17 | 48.80719 | 2.12266 | 2165 ft | 148 kts | 136° |
| 2026-04-27 10:17 | 48.79924 | 2.13281 | 2147 ft | 151 kts | 133° |
| 2026-04-27 10:17 | 48.79218 | 2.14397 | 2327 ft | 145 kts | 128° |
| 2026-04-27 10:17 | 48.78422 | 2.15319 | 2334 ft | 142 kts | 153° |
| 2026-04-27 10:18 | 48.77436 | 2.15592 | 2010 ft | 148 kts | 172° |
| 2026-04-27 10:18 | 48.76420 | 2.15369 | 1621 ft | 155 kts | 208° |
| 2026-04-27 10:18 | 48.75865 | 2.14046 | 1199 ft | 145 kts | 264° |
| 2026-04-27 10:18 | 48.75705 | 2.12695 | 838 ft | 121 kts | 264° |
| 2026-04-27 10:19 | 48.75497 | 2.11551 | 564 ft | 105 kts | 254° |
| 2026-04-27 10:19 | 48.75269 | 2.10538 | 515 ft | 95 kts | 257° |
| 2026-04-27 10:19 | 48.75030 | 2.09499 | 696 ft | 113 kts | 254° |
| 2026-04-27 10:19 | 48.74740 | 2.08332 | 1092 ft | 121 kts | 250° |
| 2026-04-27 10:20 | 48.74427 | 2.07100 | 1437 ft | 133 kts | 250° |
| 2026-04-27 10:20 | 48.73653 | 2.06209 | 1602 ft | 156 kts | 191° |
| 2026-04-27 10:20 | 48.72608 | 2.06584 | 1838 ft | 157 kts | 146° |
| 2026-04-27 10:20 | 48.71942 | 2.07794 | 1908 ft | 156 kts | 89° |
| 2026-04-27 10:21 | 48.72439 | 2.09151 | 2198 ft | 146 kts | 52° |
| 2026-04-27 10:21 | 48.72969 | 2.10358 | 2008 ft | 132 kts | 55° |
| 2026-04-27 10:21 | 48.73407 | 2.11485 | 1749 ft | 123 kts | 64° |
| 2026-04-27 10:21 | 48.73745 | 2.12645 | 1502 ft | 119 kts | 63° |
| 2026-04-27 10:22 | 48.74069 | 2.13770 | 1312 ft | 115 kts | 63° |
| 2026-04-27 10:22 | 48.74391 | 2.14847 | 1119 ft | 107 kts | 45° |
| 2026-04-27 10:22 | 48.75075 | 2.15053 | 964 ft | 107 kts | 345° |
| 2026-04-27 10:22 | 48.75707 | 2.14527 | 884 ft | 103 kts | 329° |
| 2026-04-27 10:23 | 48.75956 | 2.13606 | 827 ft | 109 kts | 258° |
| 2026-04-27 10:23 | 48.75694 | 2.12479 | 666 ft | 114 kts | 256° |
| 2026-04-27 10:23 | 48.75453 | 2.11361 | 534 ft | 108 kts | 256° |
| 2026-04-27 10:23 | 48.75237 | 2.10382 | 526 ft | 95 kts | 255° |
| 2026-04-27 10:24 | 48.74989 | 2.09372 | 815 ft | 103 kts | 250° |
| 2026-04-27 10:24 | 48.74693 | 2.08360 | 1189 ft | 109 kts | 249° |
| 2026-04-27 10:24 | 48.74346 | 2.07267 | 1455 ft | 120 kts | 248° |
| 2026-04-27 10:24 | 48.73770 | 2.06331 | 1705 ft | 140 kts | 185° |
| 2026-04-27 10:25 | 48.72775 | 2.06476 | 2000 ft | 153 kts | 162° |
| 2026-04-27 10:25 | 48.71958 | 2.07255 | 2452 ft | 134 kts | 114° |
| 2026-04-27 10:25 | 48.72000 | 2.08632 | 2638 ft | 140 kts | 67° |
| 2026-04-27 10:25 | 48.72416 | 2.10024 | 2675 ft | 143 kts | 63° |
| 2026-04-27 10:26 | 48.72863 | 2.11319 | 2558 ft | 138 kts | 59° |
| 2026-04-27 10:26 | 48.73339 | 2.12573 | 2503 ft | 137 kts | 58° |
| 2026-04-27 10:26 | 48.73829 | 2.13788 | 2381 ft | 131 kts | 58° |
| 2026-04-27 10:26 | 48.74288 | 2.14968 | 2023 ft | 128 kts | 58° |
| 2026-04-27 10:27 | 48.74813 | 2.15969 | 1855 ft | 118 kts | 33° |
| 2026-04-27 10:27 | 48.75614 | 2.16016 | 1583 ft | 116 kts | 344° |
| 2026-04-27 10:27 | 48.76122 | 2.15179 | 1341 ft | 111 kts | 295° |
| 2026-04-27 10:27 | 48.76072 | 2.13998 | 1007 ft | 115 kts | 254° |
| 2026-04-27 10:28 | 48.75791 | 2.12888 | 731 ft | 113 kts | 254° |
| 2026-04-27 10:28 | 48.75557 | 2.11823 | 576 ft | 100 kts | 258° |
| 2026-04-27 10:28 | 48.75362 | 2.10943 | 507 ft | 75 kts | 259° |
| 2026-04-27 10:28 | 48.75234 | 2.10369 | 512 ft | 47 kts | 255° |
| 2026-04-27 10:29 | 48.75147 | 2.09980 | 512 ft | 24 kts | 249° |
| 2026-04-27 10:29 | 48.75046 | 2.09844 | 512 ft | 23 kts | 209° |
| 2026-04-27 10:29 | 48.74920 | 2.09737 | 513 ft | 19 kts | 186° |
| 2026-04-27 10:29 | 48.74830 | 2.09894 | 513 ft | 22 kts | 88° |
| 2026-04-27 10:30 | 48.74832 | 2.10023 | 513 ft | 12 kts | 87° |
| 2026-04-27 10:30 | 48.74837 | 2.10211 | 513 ft | 23 kts | 88° |
| 2026-04-27 10:30 | 48.74843 | 2.10453 | 513 ft | 20 kts | 86° |
| 2026-04-27 10:30 | 48.74847 | 2.10697 | 513 ft | 19 kts | 90° |
| 2026-04-27 10:31 | 48.74889 | 2.10837 | 513 ft | 15 kts | 53° |
| 2026-04-27 10:31 | 48.74959 | 2.10979 | 513 ft | 12 kts | 44° |
| 2026-04-27 10:31 | 48.74995 | 2.11050 | 513 ft | 7 kts | 66° |
| 2026-04-27 10:31 | 48.75030 | 2.11059 | 513 ft | 1 kts | 296° |
| 2026-04-27 10:32 | 48.75031 | 2.11040 | 513 ft | 0 kts | 274° |